sensor_id;sensor_type;location;lat;lon;timestamp;P1;durP1;ratioP1;P2;durP2;ratioP2
60060;SDS011;45933;51.336;12.612;2022-08-19T00:01:32;14.07;;;12.63;;
60060;SDS011;45933;51.336;12.612;2022-08-19T00:04:01;14.15;;;12.75;;
60060;SDS011;45933;51.336;12.612;2022-08-19T00:06:29;14.05;;;12.55;;
60060;SDS011;45933;51.336;12.612;2022-08-19T00:08:55;15.75;;;14.15;;
60060;SDS011;45933;51.336;12.612;2022-08-19T00:11:22;16.63;;;14.05;;
60060;SDS011;45933;51.336;12.612;2022-08-19T00:13:49;14.75;;;13.25;;
60060;SDS011;45933;51.336;12.612;2022-08-19T00:16:15;15.40;;;12.93;;
60060;SDS011;45933;51.336;12.612;2022-08-19T00:18:45;16.40;;;13.80;;
60060;SDS011;45933;51.336;12.612;2022-08-19T00:21:12;16.02;;;14.35;;
60060;SDS011;45933;51.336;12.612;2022-08-19T00:23:37;17.15;;;13.65;;
60060;SDS011;45933;51.336;12.612;2022-08-19T00:26:03;15.60;;;14.00;;
60060;SDS011;45933;51.336;12.612;2022-08-19T00:28:29;16.80;;;15.07;;
60060;SDS011;45933;51.336;12.612;2022-08-19T00:30:55;15.88;;;13.98;;
60060;SDS011;45933;51.336;12.612;2022-08-19T00:33:21;16.35;;;14.63;;
60060;SDS011;45933;51.336;12.612;2022-08-19T00:35:46;18.23;;;16.02;;
60060;SDS011;45933;51.336;12.612;2022-08-19T00:38:12;16.73;;;15.02;;
60060;SDS011;45933;51.336;12.612;2022-08-19T00:40:38;20.77;;;15.18;;
60060;SDS011;45933;51.336;12.612;2022-08-19T00:43:10;18.02;;;16.08;;
60060;SDS011;45933;51.336;12.612;2022-08-19T00:45:38;18.27;;;16.48;;
60060;SDS011;45933;51.336;12.612;2022-08-19T00:48:07;18.02;;;16.13;;
60060;SDS011;45933;51.336;12.612;2022-08-19T00:50:33;18.50;;;15.90;;
60060;SDS011;45933;51.336;12.612;2022-08-19T00:52:59;17.38;;;15.50;;
60060;SDS011;45933;51.336;12.612;2022-08-19T00:55:29;16.48;;;14.73;;
60060;SDS011;45933;51.336;12.612;2022-08-19T00:58:01;18.05;;;16.15;;
60060;SDS011;45933;51.336;12.612;2022-08-19T01:00:32;19.27;;;16.27;;
60060;SDS011;45933;51.336;12.612;2022-08-19T01:03:02;16.77;;;15.00;;
60060;SDS011;45933;51.336;12.612;2022-08-19T01:05:41;17.15;;;15.43;;
60060;SDS011;45933;51.336;12.612;2022-08-19T01:08:08;18.75;;;16.55;;
60060;SDS011;45933;51.336;12.612;2022-08-19T01:10:39;21.38;;;15.88;;
60060;SDS011;45933;51.336;12.612;2022-08-19T01:13:07;18.77;;;16.83;;
60060;SDS011;45933;51.336;12.612;2022-08-19T01:15:33;16.55;;;14.80;;
60060;SDS011;45933;51.336;12.612;2022-08-19T01:18:06;17.75;;;15.73;;
60060;SDS011;45933;51.336;12.612;2022-08-19T01:20:34;17.70;;;15.82;;
60060;SDS011;45933;51.336;12.612;2022-08-19T01:23:00;17.98;;;16.10;;
60060;SDS011;45933;51.336;12.612;2022-08-19T01:25:33;16.80;;;15.05;;
60060;SDS011;45933;51.336;12.612;2022-08-19T01:28:04;20.75;;;15.90;;
60060;SDS011;45933;51.336;12.612;2022-08-19T01:30:31;18.27;;;16.38;;
60060;SDS011;45933;51.336;12.612;2022-08-19T01:32:59;18.08;;;16.23;;
60060;SDS011;45933;51.336;12.612;2022-08-19T01:35:26;17.05;;;15.25;;
60060;SDS011;45933;51.336;12.612;2022-08-19T01:37:54;17.15;;;15.45;;
60060;SDS011;45933;51.336;12.612;2022-08-19T01:40:21;17.73;;;15.80;;
60060;SDS011;45933;51.336;12.612;2022-08-19T01:42:50;17.67;;;15.68;;
60060;SDS011;45933;51.336;12.612;2022-08-19T01:45:16;17.13;;;15.38;;
60060;SDS011;45933;51.336;12.612;2022-08-19T01:47:42;19.33;;;15.75;;
60060;SDS011;45933;51.336;12.612;2022-08-19T01:50:09;18.88;;;16.13;;
60060;SDS011;45933;51.336;12.612;2022-08-19T01:52:36;20.10;;;15.82;;
60060;SDS011;45933;51.336;12.612;2022-08-19T01:55:07;15.75;;;14.15;;
60060;SDS011;45933;51.336;12.612;2022-08-19T01:57:36;14.75;;;13.35;;
60060;SDS011;45933;51.336;12.612;2022-08-19T02:00:05;16.60;;;14.43;;
60060;SDS011;45933;51.336;12.612;2022-08-19T02:02:34;15.05;;;13.63;;
60060;SDS011;45933;51.336;12.612;2022-08-19T02:05:00;14.60;;;13.20;;
60060;SDS011;45933;51.336;12.612;2022-08-19T02:07:25;14.73;;;13.32;;
60060;SDS011;45933;51.336;12.612;2022-08-19T02:09:51;13.60;;;12.30;;
60060;SDS011;45933;51.336;12.612;2022-08-19T02:12:16;15.00;;;13.50;;
60060;SDS011;45933;51.336;12.612;2022-08-19T02:14:42;13.52;;;12.27;;
60060;SDS011;45933;51.336;12.612;2022-08-19T02:17:08;13.02;;;11.80;;
60060;SDS011;45933;51.336;12.612;2022-08-19T02:19:33;13.73;;;12.40;;
60060;SDS011;45933;51.336;12.612;2022-08-19T02:21:59;13.77;;;12.50;;
60060;SDS011;45933;51.336;12.612;2022-08-19T02:24:25;13.82;;;12.45;;
60060;SDS011;45933;51.336;12.612;2022-08-19T02:26:52;11.57;;;10.48;;
60060;SDS011;45933;51.336;12.612;2022-08-19T02:29:18;13.10;;;11.90;;
60060;SDS011;45933;51.336;12.612;2022-08-19T02:31:44;13.40;;;12.00;;
60060;SDS011;45933;51.336;12.612;2022-08-19T02:34:09;13.65;;;12.25;;
60060;SDS011;45933;51.336;12.612;2022-08-19T02:36:35;12.95;;;11.75;;
60060;SDS011;45933;51.336;12.612;2022-08-19T02:39:00;13.68;;;12.38;;
60060;SDS011;45933;51.336;12.612;2022-08-19T02:41:28;14.30;;;12.90;;
60060;SDS011;45933;51.336;12.612;2022-08-19T02:43:56;14.02;;;12.43;;
60060;SDS011;45933;51.336;12.612;2022-08-19T02:46:24;13.57;;;12.27;;
60060;SDS011;45933;51.336;12.612;2022-08-19T02:48:52;12.73;;;11.60;;
60060;SDS011;45933;51.336;12.612;2022-08-19T02:51:29;13.13;;;11.52;;
60060;SDS011;45933;51.336;12.612;2022-08-19T02:53:56;14.20;;;12.80;;
60060;SDS011;45933;51.336;12.612;2022-08-19T02:56:22;14.60;;;13.20;;
60060;SDS011;45933;51.336;12.612;2022-08-19T02:58:49;14.02;;;12.55;;
60060;SDS011;45933;51.336;12.612;2022-08-19T03:03:46;14.15;;;12.77;;
60060;SDS011;45933;51.336;12.612;2022-08-19T03:06:13;13.90;;;12.20;;
60060;SDS011;45933;51.336;12.612;2022-08-19T03:08:41;14.00;;;12.63;;
60060;SDS011;45933;51.336;12.612;2022-08-19T03:13:44;13.38;;;12.07;;
60060;SDS011;45933;51.336;12.612;2022-08-19T03:16:11;13.82;;;12.52;;
60060;SDS011;45933;51.336;12.612;2022-08-19T03:18:37;13.77;;;12.48;;
60060;SDS011;45933;51.336;12.612;2022-08-19T03:21:03;13.68;;;11.93;;
60060;SDS011;45933;51.336;12.612;2022-08-19T03:23:29;12.70;;;11.52;;
60060;SDS011;45933;51.336;12.612;2022-08-19T03:25:55;13.88;;;12.52;;
60060;SDS011;45933;51.336;12.612;2022-08-19T03:28:20;13.63;;;12.32;;
60060;SDS011;45933;51.336;12.612;2022-08-19T03:30:56;13.55;;;12.25;;
60060;SDS011;45933;51.336;12.612;2022-08-19T03:33:27;14.57;;;13.10;;
60060;SDS011;45933;51.336;12.612;2022-08-19T03:36:00;14.45;;;13.05;;
60060;SDS011;45933;51.336;12.612;2022-08-19T03:38:29;14.15;;;12.75;;
60060;SDS011;45933;51.336;12.612;2022-08-19T03:40:54;14.25;;;12.75;;
60060;SDS011;45933;51.336;12.612;2022-08-19T03:43:20;13.55;;;12.13;;
60060;SDS011;45933;51.336;12.612;2022-08-19T03:45:46;13.98;;;12.68;;
60060;SDS011;45933;51.336;12.612;2022-08-19T03:48:12;13.48;;;12.23;;
60060;SDS011;45933;51.336;12.612;2022-08-19T03:50:40;13.35;;;11.95;;
60060;SDS011;45933;51.336;12.612;2022-08-19T03:53:05;13.43;;;12.23;;
60060;SDS011;45933;51.336;12.612;2022-08-19T03:55:33;13.38;;;12.07;;
60060;SDS011;45933;51.336;12.612;2022-08-19T03:58:03;14.50;;;13.00;;
60060;SDS011;45933;51.336;12.612;2022-08-19T04:00:29;14.25;;;12.85;;
60060;SDS011;45933;51.336;12.612;2022-08-19T04:02:54;14.38;;;13.02;;
60060;SDS011;45933;51.336;12.612;2022-08-19T04:05:19;14.05;;;12.70;;
60060;SDS011;45933;51.336;12.612;2022-08-19T04:07:45;15.10;;;13.60;;
60060;SDS011;45933;51.336;12.612;2022-08-19T04:10:11;13.65;;;12.32;;
60060;SDS011;45933;51.336;12.612;2022-08-19T04:12:36;14.02;;;12.63;;
60060;SDS011;45933;51.336;12.612;2022-08-19T04:15:02;13.23;;;11.95;;
60060;SDS011;45933;51.336;12.612;2022-08-19T04:17:28;13.43;;;12.13;;
60060;SDS011;45933;51.336;12.612;2022-08-19T04:19:53;12.40;;;11.30;;
60060;SDS011;45933;51.336;12.612;2022-08-19T04:22:18;13.50;;;12.18;;
60060;SDS011;45933;51.336;12.612;2022-08-19T04:24:44;13.20;;;11.98;;
60060;SDS011;45933;51.336;12.612;2022-08-19T04:27:09;13.07;;;11.77;;
60060;SDS011;45933;51.336;12.612;2022-08-19T04:29:34;14.13;;;12.73;;
60060;SDS011;45933;51.336;12.612;2022-08-19T04:32:00;11.95;;;10.85;;
60060;SDS011;45933;51.336;12.612;2022-08-19T04:34:28;12.88;;;11.57;;
60060;SDS011;45933;51.336;12.612;2022-08-19T04:36:54;13.10;;;11.77;;
60060;SDS011;45933;51.336;12.612;2022-08-19T04:39:22;12.73;;;11.52;;
60060;SDS011;45933;51.336;12.612;2022-08-19T04:42:10;11.93;;;10.82;;
60060;SDS011;45933;51.336;12.612;2022-08-19T04:44:54;13.13;;;11.82;;
60060;SDS011;45933;51.336;12.612;2022-08-19T04:47:19;11.57;;;10.38;;
60060;SDS011;45933;51.336;12.612;2022-08-19T04:49:45;11.93;;;10.30;;
60060;SDS011;45933;51.336;12.612;2022-08-19T04:52:11;13.00;;;11.60;;
60060;SDS011;45933;51.336;12.612;2022-08-19T04:54:36;13.30;;;12.00;;
60060;SDS011;45933;51.336;12.612;2022-08-19T04:57:01;13.02;;;11.68;;
60060;SDS011;45933;51.336;12.612;2022-08-19T04:59:28;13.18;;;11.82;;
60060;SDS011;45933;51.336;12.612;2022-08-19T05:01:53;13.80;;;12.40;;
60060;SDS011;45933;51.336;12.612;2022-08-19T05:04:19;13.95;;;12.60;;
60060;SDS011;45933;51.336;12.612;2022-08-19T05:06:46;14.50;;;13.00;;
60060;SDS011;45933;51.336;12.612;2022-08-19T05:09:12;14.93;;;13.32;;
60060;SDS011;45933;51.336;12.612;2022-08-19T05:11:38;13.65;;;12.35;;
60060;SDS011;45933;51.336;12.612;2022-08-19T05:14:04;13.85;;;12.65;;
60060;SDS011;45933;51.336;12.612;2022-08-19T05:16:31;13.50;;;12.15;;
60060;SDS011;45933;51.336;12.612;2022-08-19T05:18:56;14.75;;;13.30;;
60060;SDS011;45933;51.336;12.612;2022-08-19T05:21:41;15.18;;;13.73;;
60060;SDS011;45933;51.336;12.612;2022-08-19T05:24:25;14.93;;;13.60;;
60060;SDS011;45933;51.336;12.612;2022-08-19T05:26:51;14.80;;;13.43;;
60060;SDS011;45933;51.336;12.612;2022-08-19T05:29:21;15.77;;;14.25;;
60060;SDS011;45933;51.336;12.612;2022-08-19T05:31:48;16.88;;;15.27;;
60060;SDS011;45933;51.336;12.612;2022-08-19T05:34:15;15.77;;;13.98;;
60060;SDS011;45933;51.336;12.612;2022-08-19T05:36:42;14.70;;;13.20;;
60060;SDS011;45933;51.336;12.612;2022-08-19T05:39:10;16.33;;;14.73;;
60060;SDS011;45933;51.336;12.612;2022-08-19T05:41:45;16.60;;;15.10;;
60060;SDS011;45933;51.336;12.612;2022-08-19T05:44:13;16.35;;;14.80;;
60060;SDS011;45933;51.336;12.612;2022-08-19T05:46:39;18.40;;;15.45;;
60060;SDS011;45933;51.336;12.612;2022-08-19T05:49:07;18.38;;;16.58;;
60060;SDS011;45933;51.336;12.612;2022-08-19T05:51:33;19.63;;;17.73;;
60060;SDS011;45933;51.336;12.612;2022-08-19T05:54:01;19.85;;;17.83;;
60060;SDS011;45933;51.336;12.612;2022-08-19T05:56:27;22.67;;;19.20;;
60060;SDS011;45933;51.336;12.612;2022-08-19T05:58:55;21.90;;;19.65;;
60060;SDS011;45933;51.336;12.612;2022-08-19T06:01:20;22.23;;;20.13;;
60060;SDS011;45933;51.336;12.612;2022-08-19T06:03:46;23.00;;;20.40;;
60060;SDS011;45933;51.336;12.612;2022-08-19T06:06:13;23.58;;;21.17;;
60060;SDS011;45933;51.336;12.612;2022-08-19T06:08:39;24.98;;;20.55;;
60060;SDS011;45933;51.336;12.612;2022-08-19T06:14:00;24.67;;;22.20;;
60060;SDS011;45933;51.336;12.612;2022-08-19T06:16:29;24.15;;;21.75;;
60060;SDS011;45933;51.336;12.612;2022-08-19T06:18:57;25.73;;;23.23;;
60060;SDS011;45933;51.336;12.612;2022-08-19T06:21:26;30.95;;;27.67;;
60060;SDS011;45933;51.336;12.612;2022-08-19T06:23:53;27.92;;;25.08;;
60060;SDS011;45933;51.336;12.612;2022-08-19T06:26:20;29.40;;;24.77;;
60060;SDS011;45933;51.336;12.612;2022-08-19T06:28:47;26.63;;;23.90;;
60060;SDS011;45933;51.336;12.612;2022-08-19T06:31:13;27.13;;;23.98;;
60060;SDS011;45933;51.336;12.612;2022-08-19T06:33:41;26.55;;;23.75;;
60060;SDS011;45933;51.336;12.612;2022-08-19T06:36:07;27.52;;;24.65;;
60060;SDS011;45933;51.336;12.612;2022-08-19T06:38:40;27.98;;;24.88;;
60060;SDS011;45933;51.336;12.612;2022-08-19T06:41:05;29.75;;;24.08;;
60060;SDS011;45933;51.336;12.612;2022-08-19T06:43:31;27.92;;;24.92;;
60060;SDS011;45933;51.336;12.612;2022-08-19T06:45:56;28.73;;;25.70;;
60060;SDS011;45933;51.336;12.612;2022-08-19T06:48:22;28.73;;;25.23;;
60060;SDS011;45933;51.336;12.612;2022-08-19T06:50:47;29.35;;;26.30;;
60060;SDS011;45933;51.336;12.612;2022-08-19T06:53:14;33.03;;;27.17;;
60060;SDS011;45933;51.336;12.612;2022-08-19T06:55:40;29.92;;;26.83;;
60060;SDS011;45933;51.336;12.612;2022-08-19T06:58:05;29.25;;;26.13;;
60060;SDS011;45933;51.336;12.612;2022-08-19T07:00:31;30.35;;;27.08;;
60060;SDS011;45933;51.336;12.612;2022-08-19T07:02:57;29.73;;;26.58;;
60060;SDS011;45933;51.336;12.612;2022-08-19T07:05:23;30.02;;;26.98;;
60060;SDS011;45933;51.336;12.612;2022-08-19T07:07:48;28.73;;;25.73;;
60060;SDS011;45933;51.336;12.612;2022-08-19T07:10:14;29.42;;;26.35;;
60060;SDS011;45933;51.336;12.612;2022-08-19T07:12:40;31.48;;;27.70;;
60060;SDS011;45933;51.336;12.612;2022-08-19T07:15:06;31.42;;;27.85;;
60060;SDS011;45933;51.336;12.612;2022-08-19T07:17:34;29.30;;;26.23;;
60060;SDS011;45933;51.336;12.612;2022-08-19T07:20:03;28.55;;;25.55;;
60060;SDS011;45933;51.336;12.612;2022-08-19T07:22:31;28.17;;;24.67;;
60060;SDS011;45933;51.336;12.612;2022-08-19T07:24:58;30.48;;;27.15;;
60060;SDS011;45933;51.336;12.612;2022-08-19T07:27:23;32.80;;;28.27;;
60060;SDS011;45933;51.336;12.612;2022-08-19T07:29:49;31.83;;;28.38;;
60060;SDS011;45933;51.336;12.612;2022-08-19T07:32:14;31.80;;;28.35;;
60060;SDS011;45933;51.336;12.612;2022-08-19T07:34:40;34.30;;;29.40;;
60060;SDS011;45933;51.336;12.612;2022-08-19T07:37:05;29.75;;;26.65;;
60060;SDS011;45933;51.336;12.612;2022-08-19T07:39:32;33.25;;;29.08;;
60060;SDS011;45933;51.336;12.612;2022-08-19T07:42:00;30.60;;;27.38;;
60060;SDS011;45933;51.336;12.612;2022-08-19T07:44:29;31.67;;;28.33;;
60060;SDS011;45933;51.336;12.612;2022-08-19T07:46:55;34.17;;;27.23;;
60060;SDS011;45933;51.336;12.612;2022-08-19T07:49:22;30.33;;;27.08;;
60060;SDS011;45933;51.336;12.612;2022-08-19T07:51:51;32.47;;;28.05;;
60060;SDS011;45933;51.336;12.612;2022-08-19T07:54:19;35.13;;;28.13;;
60060;SDS011;45933;51.336;12.612;2022-08-19T07:56:45;33.10;;;27.65;;
60060;SDS011;45933;51.336;12.612;2022-08-19T07:59:11;32.90;;;27.90;;
60060;SDS011;45933;51.336;12.612;2022-08-19T08:01:37;31.30;;;26.35;;
60060;SDS011;45933;51.336;12.612;2022-08-19T08:04:05;28.05;;;25.13;;
60060;SDS011;45933;51.336;12.612;2022-08-19T08:06:50;27.58;;;23.65;;
60060;SDS011;45933;51.336;12.612;2022-08-19T08:09:36;27.83;;;24.77;;
60060;SDS011;45933;51.336;12.612;2022-08-19T08:12:05;28.02;;;24.80;;
60060;SDS011;45933;51.336;12.612;2022-08-19T08:14:45;27.38;;;24.48;;
60060;SDS011;45933;51.336;12.612;2022-08-19T08:17:14;29.75;;;25.98;;
60060;SDS011;45933;51.336;12.612;2022-08-19T08:19:41;26.67;;;23.58;;
60060;SDS011;45933;51.336;12.612;2022-08-19T08:22:08;29.25;;;26.17;;
60060;SDS011;45933;51.336;12.612;2022-08-19T08:24:54;29.48;;;25.88;;
60060;SDS011;45933;51.336;12.612;2022-08-19T08:27:23;27.55;;;24.65;;
60060;SDS011;45933;51.336;12.612;2022-08-19T08:29:49;28.73;;;24.98;;
60060;SDS011;45933;51.336;12.612;2022-08-19T08:32:14;28.55;;;25.60;;
60060;SDS011;45933;51.336;12.612;2022-08-19T08:34:39;30.88;;;26.63;;
60060;SDS011;45933;51.336;12.612;2022-08-19T08:37:05;33.10;;;27.83;;
60060;SDS011;45933;51.336;12.612;2022-08-19T08:39:30;33.65;;;27.90;;
60060;SDS011;45933;51.336;12.612;2022-08-19T08:41:58;29.17;;;25.95;;
60060;SDS011;45933;51.336;12.612;2022-08-19T08:44:44;30.98;;;26.60;;
60060;SDS011;45933;51.336;12.612;2022-08-19T08:47:18;32.53;;;27.80;;
60060;SDS011;45933;51.336;12.612;2022-08-19T08:49:48;29.02;;;25.33;;
60060;SDS011;45933;51.336;12.612;2022-08-19T08:52:24;29.58;;;25.48;;
60060;SDS011;45933;51.336;12.612;2022-08-19T08:54:53;33.50;;;25.70;;
60060;SDS011;45933;51.336;12.612;2022-08-19T08:59:53;32.63;;;26.80;;
60060;SDS011;45933;51.336;12.612;2022-08-19T09:02:22;30.75;;;27.60;;
60060;SDS011;45933;51.336;12.612;2022-08-19T09:04:47;31.63;;;27.88;;
60060;SDS011;45933;51.336;12.612;2022-08-19T09:12:45;28.50;;;25.38;;
60060;SDS011;45933;51.336;12.612;2022-08-19T09:15:22;27.77;;;24.77;;
60060;SDS011;45933;51.336;12.612;2022-08-19T09:17:53;27.50;;;24.63;;
60060;SDS011;45933;51.336;12.612;2022-08-19T09:20:20;28.63;;;25.52;;
60060;SDS011;45933;51.336;12.612;2022-08-19T09:22:48;29.90;;;26.80;;
60060;SDS011;45933;51.336;12.612;2022-08-19T09:25:18;28.35;;;25.15;;
60060;SDS011;45933;51.336;12.612;2022-08-19T09:27:47;30.98;;;27.63;;
60060;SDS011;45933;51.336;12.612;2022-08-19T09:30:15;30.95;;;26.65;;
60060;SDS011;45933;51.336;12.612;2022-08-19T09:32:43;31.90;;;28.40;;
60060;SDS011;45933;51.336;12.612;2022-08-19T09:35:09;31.02;;;27.58;;
60060;SDS011;45933;51.336;12.612;2022-08-19T09:37:35;29.60;;;26.35;;
60060;SDS011;45933;51.336;12.612;2022-08-19T09:40:01;33.47;;;27.98;;
60060;SDS011;45933;51.336;12.612;2022-08-19T09:42:27;30.98;;;27.40;;
60060;SDS011;45933;51.336;12.612;2022-08-19T09:44:53;30.30;;;27.08;;
60060;SDS011;45933;51.336;12.612;2022-08-19T09:47:18;32.45;;;28.92;;
60060;SDS011;45933;51.336;12.612;2022-08-19T09:49:43;32.70;;;29.20;;
60060;SDS011;45933;51.336;12.612;2022-08-19T09:52:09;30.50;;;27.17;;
60060;SDS011;45933;51.336;12.612;2022-08-19T09:54:36;31.45;;;28.00;;
60060;SDS011;45933;51.336;12.612;2022-08-19T09:57:03;31.58;;;28.23;;
60060;SDS011;45933;51.336;12.612;2022-08-19T09:59:28;31.08;;;27.50;;
60060;SDS011;45933;51.336;12.612;2022-08-19T10:01:54;32.13;;;26.42;;
60060;SDS011;45933;51.336;12.612;2022-08-19T10:04:20;30.10;;;26.90;;
60060;SDS011;45933;51.336;12.612;2022-08-19T10:06:46;27.67;;;24.60;;
60060;SDS011;45933;51.336;12.612;2022-08-19T10:09:13;32.40;;;26.70;;
60060;SDS011;45933;51.336;12.612;2022-08-19T10:11:41;35.78;;;26.90;;
60060;SDS011;45933;51.336;12.612;2022-08-19T10:14:08;32.03;;;27.90;;
60060;SDS011;45933;51.336;12.612;2022-08-19T10:16:33;30.05;;;25.60;;
60060;SDS011;45933;51.336;12.612;2022-08-19T10:19:02;33.67;;;28.70;;
60060;SDS011;45933;51.336;12.612;2022-08-19T10:21:29;31.35;;;25.70;;
60060;SDS011;45933;51.336;12.612;2022-08-19T10:23:57;32.15;;;27.13;;
60060;SDS011;45933;51.336;12.612;2022-08-19T10:26:27;28.20;;;24.95;;
60060;SDS011;45933;51.336;12.612;2022-08-19T10:28:55;31.95;;;27.00;;
60060;SDS011;45933;51.336;12.612;2022-08-19T10:31:23;29.15;;;25.20;;
60060;SDS011;45933;51.336;12.612;2022-08-19T10:33:50;31.25;;;26.55;;
60060;SDS011;45933;51.336;12.612;2022-08-19T10:36:22;34.20;;;27.75;;
60060;SDS011;45933;51.336;12.612;2022-08-19T10:38:50;29.52;;;26.38;;
60060;SDS011;45933;51.336;12.612;2022-08-19T10:41:19;29.45;;;25.77;;
60060;SDS011;45933;51.336;12.612;2022-08-19T10:43:49;30.77;;;27.05;;
60060;SDS011;45933;51.336;12.612;2022-08-19T10:46:17;29.15;;;26.08;;
60060;SDS011;45933;51.336;12.612;2022-08-19T10:48:43;32.05;;;25.95;;
60060;SDS011;45933;51.336;12.612;2022-08-19T10:51:11;28.65;;;25.38;;
60060;SDS011;45933;51.336;12.612;2022-08-19T10:53:55;27.55;;;24.42;;
60060;SDS011;45933;51.336;12.612;2022-08-19T10:56:22;27.30;;;24.25;;
60060;SDS011;45933;51.336;12.612;2022-08-19T10:59:05;25.23;;;22.65;;
60060;SDS011;45933;51.336;12.612;2022-08-19T11:01:31;26.80;;;24.00;;
60060;SDS011;45933;51.336;12.612;2022-08-19T11:03:59;24.67;;;22.08;;
60060;SDS011;45933;51.336;12.612;2022-08-19T11:06:26;26.23;;;23.42;;
60060;SDS011;45933;51.336;12.612;2022-08-19T11:08:52;27.38;;;24.48;;
60060;SDS011;45933;51.336;12.612;2022-08-19T11:11:19;26.50;;;21.52;;
60060;SDS011;45933;51.336;12.612;2022-08-19T11:13:46;25.23;;;22.73;;
60060;SDS011;45933;51.336;12.612;2022-08-19T11:16:13;23.83;;;21.42;;
60060;SDS011;45933;51.336;12.612;2022-08-19T11:18:44;26.30;;;22.98;;
60060;SDS011;45933;51.336;12.612;2022-08-19T11:21:16;22.83;;;20.45;;
60060;SDS011;45933;51.336;12.612;2022-08-19T11:23:42;22.95;;;20.65;;
60060;SDS011;45933;51.336;12.612;2022-08-19T11:26:08;23.55;;;20.83;;
60060;SDS011;45933;51.336;12.612;2022-08-19T11:28:35;22.00;;;19.50;;
60060;SDS011;45933;51.336;12.612;2022-08-19T11:31:00;21.30;;;19.20;;
60060;SDS011;45933;51.336;12.612;2022-08-19T11:33:28;21.77;;;18.98;;
60060;SDS011;45933;51.336;12.612;2022-08-19T11:35:57;21.90;;;18.90;;
60060;SDS011;45933;51.336;12.612;2022-08-19T11:38:24;20.55;;;18.30;;
60060;SDS011;45933;51.336;12.612;2022-08-19T11:40:54;19.85;;;17.70;;
60060;SDS011;45933;51.336;12.612;2022-08-19T11:43:23;19.77;;;17.73;;
60060;SDS011;45933;51.336;12.612;2022-08-19T11:45:49;19.40;;;17.48;;
60060;SDS011;45933;51.336;12.612;2022-08-19T11:48:15;19.77;;;16.90;;
60060;SDS011;45933;51.336;12.612;2022-08-19T11:50:40;20.88;;;17.35;;
60060;SDS011;45933;51.336;12.612;2022-08-19T11:53:08;21.55;;;16.55;;
60060;SDS011;45933;51.336;12.612;2022-08-19T11:55:36;17.55;;;15.65;;
60060;SDS011;45933;51.336;12.612;2022-08-19T11:58:04;17.25;;;15.35;;
60060;SDS011;45933;51.336;12.612;2022-08-19T12:00:31;16.77;;;14.95;;
60060;SDS011;45933;51.336;12.612;2022-08-19T12:02:58;23.02;;;15.35;;
60060;SDS011;45933;51.336;12.612;2022-08-19T12:05:23;16.67;;;14.75;;
60060;SDS011;45933;51.336;12.612;2022-08-19T12:07:48;18.48;;;15.77;;
60060;SDS011;45933;51.336;12.612;2022-08-19T12:10:14;19.33;;;15.20;;
60060;SDS011;45933;51.336;12.612;2022-08-19T12:12:39;18.70;;;15.55;;
60060;SDS011;45933;51.336;12.612;2022-08-19T12:15:07;21.27;;;16.30;;
60060;SDS011;45933;51.336;12.612;2022-08-19T12:17:35;15.80;;;14.20;;
60060;SDS011;45933;51.336;12.612;2022-08-19T12:20:01;17.10;;;13.45;;
60060;SDS011;45933;51.336;12.612;2022-08-19T12:22:26;20.00;;;14.18;;
60060;SDS011;45933;51.336;12.612;2022-08-19T12:24:53;15.30;;;13.80;;
60060;SDS011;45933;51.336;12.612;2022-08-19T12:27:19;16.75;;;15.00;;
60060;SDS011;45933;51.336;12.612;2022-08-19T12:29:45;14.50;;;12.93;;
60060;SDS011;45933;51.336;12.612;2022-08-19T12:32:10;14.93;;;13.43;;
60060;SDS011;45933;51.336;12.612;2022-08-19T12:34:36;13.48;;;11.73;;
60060;SDS011;45933;51.336;12.612;2022-08-19T12:37:02;13.65;;;12.35;;
60060;SDS011;45933;51.336;12.612;2022-08-19T12:39:29;15.57;;;13.63;;
60060;SDS011;45933;51.336;12.612;2022-08-19T12:41:58;14.68;;;13.20;;
60060;SDS011;45933;51.336;12.612;2022-08-19T12:44:26;14.88;;;12.57;;
60060;SDS011;45933;51.336;12.612;2022-08-19T12:46:52;16.52;;;13.98;;
60060;SDS011;45933;51.336;12.612;2022-08-19T12:49:17;22.90;;;14.93;;
60060;SDS011;45933;51.336;12.612;2022-08-19T12:51:42;15.85;;;13.52;;
60060;SDS011;45933;51.336;12.612;2022-08-19T12:54:08;17.90;;;13.82;;
60060;SDS011;45933;51.336;12.612;2022-08-19T12:56:33;16.70;;;15.00;;
60060;SDS011;45933;51.336;12.612;2022-08-19T12:59:03;16.15;;;14.55;;
60060;SDS011;45933;51.336;12.612;2022-08-19T13:01:29;15.95;;;14.43;;
60060;SDS011;45933;51.336;12.612;2022-08-19T13:03:57;15.60;;;14.02;;
60060;SDS011;45933;51.336;12.612;2022-08-19T13:06:23;16.05;;;13.75;;
60060;SDS011;45933;51.336;12.612;2022-08-19T13:08:48;15.88;;;14.05;;
60060;SDS011;45933;51.336;12.612;2022-08-19T13:11:16;16.98;;;14.70;;
60060;SDS011;45933;51.336;12.612;2022-08-19T13:13:44;16.25;;;14.55;;
60060;SDS011;45933;51.336;12.612;2022-08-19T13:16:12;18.42;;;15.35;;
60060;SDS011;45933;51.336;12.612;2022-08-19T13:18:40;17.73;;;14.80;;
60060;SDS011;45933;51.336;12.612;2022-08-19T13:21:07;16.17;;;14.52;;
60060;SDS011;45933;51.336;12.612;2022-08-19T13:23:36;15.35;;;13.85;;
60060;SDS011;45933;51.336;12.612;2022-08-19T13:26:03;19.15;;;15.93;;
60060;SDS011;45933;51.336;12.612;2022-08-19T13:28:31;18.42;;;15.63;;
60060;SDS011;45933;51.336;12.612;2022-08-19T13:31:22;16.17;;;14.55;;
60060;SDS011;45933;51.336;12.612;2022-08-19T13:34:08;18.38;;;14.27;;
60060;SDS011;45933;51.336;12.612;2022-08-19T13:36:34;16.25;;;14.55;;
60060;SDS011;45933;51.336;12.612;2022-08-19T13:39:00;16.35;;;14.68;;
60060;SDS011;45933;51.336;12.612;2022-08-19T13:41:25;16.98;;;15.18;;
60060;SDS011;45933;51.336;12.612;2022-08-19T13:43:52;16.25;;;14.45;;
60060;SDS011;45933;51.336;12.612;2022-08-19T13:46:18;16.60;;;14.85;;
60060;SDS011;45933;51.336;12.612;2022-08-19T13:48:44;17.30;;;15.57;;
60060;SDS011;45933;51.336;12.612;2022-08-19T13:51:10;14.90;;;13.25;;
60060;SDS011;45933;51.336;12.612;2022-08-19T13:53:36;18.10;;;16.20;;
60060;SDS011;45933;51.336;12.612;2022-08-19T13:56:06;18.15;;;16.25;;
60060;SDS011;45933;51.336;12.612;2022-08-19T13:58:36;18.23;;;16.33;;
60060;SDS011;45933;51.336;12.612;2022-08-19T14:01:02;17.20;;;15.40;;
60060;SDS011;45933;51.336;12.612;2022-08-19T14:03:29;17.02;;;15.32;;
60060;SDS011;45933;51.336;12.612;2022-08-19T14:05:55;17.23;;;14.95;;
60060;SDS011;45933;51.336;12.612;2022-08-19T14:08:21;18.27;;;16.40;;
60060;SDS011;45933;51.336;12.612;2022-08-19T14:10:46;18.08;;;16.27;;
60060;SDS011;45933;51.336;12.612;2022-08-19T14:13:14;17.95;;;16.10;;
60060;SDS011;45933;51.336;12.612;2022-08-19T14:15:41;18.95;;;16.95;;
60060;SDS011;45933;51.336;12.612;2022-08-19T14:18:06;18.45;;;16.48;;
60060;SDS011;45933;51.336;12.612;2022-08-19T14:20:35;17.58;;;15.77;;
60060;SDS011;45933;51.336;12.612;2022-08-19T14:23:01;24.67;;;15.73;;
60060;SDS011;45933;51.336;12.612;2022-08-19T14:25:27;20.17;;;17.17;;
60060;SDS011;45933;51.336;12.612;2022-08-19T14:27:54;18.70;;;16.80;;